createdAt,value
2019-02-11T00:00:23.331Z,28.2
2019-02-11T00:01:13.889Z,27.1
2019-02-11T00:02:04.041Z,26.6
2019-02-11T00:02:53.762Z,26.3
2019-02-11T00:03:43.781Z,26.2
2019-02-11T00:04:33.343Z,26.4
2019-02-11T00:05:23.071Z,26.8
2019-02-11T00:06:13.703Z,26.8
2019-02-11T00:07:03.482Z,26.9
2019-02-11T00:07:53.254Z,27.2
2019-02-11T00:08:44.125Z,27.4
2019-02-11T00:09:33.631Z,27.6
2019-02-11T00:10:24.259Z,27.9
2019-02-11T00:11:14.937Z,28.1
2019-02-11T00:12:03.536Z,28.3
2019-02-11T00:12:53.601Z,28.5
2019-02-11T00:13:44.263Z,28.7
2019-02-11T00:14:33.991Z,28.9
2019-02-11T00:15:23.473Z,29.1
2019-02-11T00:16:14.940Z,29.3
2019-02-11T00:17:05.043Z,29.4
2019-02-11T00:17:54.820Z,29.6
2019-02-11T00:18:45.150Z,29.6
2019-02-11T00:19:35.227Z,29.5
2019-02-11T00:20:24.722Z,29.4
2019-02-11T00:21:14.715Z,29.3
2019-02-11T00:22:05.355Z,29.1
2019-02-11T00:22:54.290Z,29
2019-02-11T00:23:44.942Z,28.9
2019-02-11T00:24:35.020Z,28.8
2019-02-11T00:25:24.457Z,28.6
2019-02-11T00:26:14.827Z,28.4
2019-02-11T00:27:04.604Z,28.3
2019-02-11T00:27:55.287Z,27.6
2019-02-11T00:28:45.857Z,26.9
2019-02-11T00:29:35.642Z,26.4
2019-02-11T00:30:25.912Z,26.2
2019-02-11T00:31:15.639Z,26.2
2019-02-11T00:32:05.822Z,26.5
2019-02-11T00:32:57.213Z,26.8
2019-02-11T00:33:45.902Z,26.8
2019-02-11T00:34:35.461Z,27
2019-02-11T00:35:25.439Z,27.3
2019-02-11T00:36:15.510Z,27.4
2019-02-11T00:37:06.424Z,27.7
2019-02-11T00:37:55.646Z,27.9
2019-02-11T00:38:45.425Z,28.1
2019-02-11T00:39:35.886Z,28.1
2019-02-11T00:40:25.605Z,28.3
2019-02-11T00:41:15.883Z,27.9
2019-02-11T00:42:05.369Z,27
2019-02-11T00:42:56.539Z,26.1
2019-02-11T00:43:46.574Z,25.7
2019-02-11T00:44:35.526Z,25.8
2019-02-11T00:45:26.422Z,26.4
2019-02-11T00:46:16.746Z,26.6
2019-02-11T00:47:06.566Z,26.9
2019-02-11T00:47:56.031Z,27.1
2019-02-11T00:48:46.108Z,27.3
2019-02-11T00:49:35.333Z,27.6
2019-02-11T00:51:16.546Z,28.1
2019-02-11T00:52:06.613Z,28.3
2019-02-11T00:52:57.503Z,28.5
2019-02-11T00:53:47.696Z,28.7
2019-02-11T00:54:37.344Z,28.9
2019-02-11T00:55:27.456Z,29.1
2019-02-11T00:56:17.448Z,29.2
2019-02-11T00:57:07.533Z,29.4
2019-02-11T00:57:57.585Z,29.5
2019-02-11T00:58:47.091Z,29.6
2019-02-11T00:59:37.433Z,29.5
2019-02-11T01:00:26.988Z,29.4
2019-02-11T01:01:18.623Z,29.3
2019-02-11T01:02:07.015Z,29.1
2019-02-11T01:02:58.223Z,29
2019-02-11T01:03:47.725Z,28.9
2019-02-11T01:04:37.795Z,28.7
2019-02-11T01:05:27.560Z,28.6
2019-02-11T01:06:17.348Z,28.4
2019-02-11T01:07:09.871Z,28.3
2019-02-11T01:07:57.730Z,28.2
2019-02-11T01:08:47.512Z,27.2
2019-02-11T01:09:38.372Z,26.6
2019-02-11T01:10:27.394Z,26.3
2019-02-11T01:11:18.331Z,26.1
2019-02-11T01:12:08.292Z,26.4
2019-02-11T01:12:57.767Z,26.7
2019-02-11T01:13:47.918Z,26.9
2019-02-11T01:14:37.367Z,26.9
2019-02-11T01:15:27.400Z,27.1
2019-02-11T01:16:18.574Z,27.3
2019-02-11T01:17:08.639Z,27.6
2019-02-11T01:17:59.071Z,27.8
2019-02-11T01:18:47.994Z,28
2019-02-11T01:19:39.094Z,28.3
2019-02-11T01:20:28.049Z,28.4
2019-02-11T01:21:18.647Z,28.6
2019-02-11T01:22:09.579Z,28.8
2019-02-11T01:22:58.504Z,28.9
2019-02-11T01:23:47.986Z,29.1
2019-02-11T01:24:38.591Z,29.3
2019-02-11T01:25:28.658Z,29.4
2019-02-11T01:26:19.279Z,29.6
2019-02-11T01:27:09.617Z,29.6
2019-02-11T01:27:59.418Z,29.5
2019-02-11T01:28:49.504Z,29.4
2019-02-11T01:29:39.247Z,29.3
2019-02-11T01:30:29.893Z,29.1
2019-02-11T01:31:18.538Z,29
2019-02-11T01:32:09.113Z,28.9
2019-02-11T01:32:59.468Z,28.7
2019-02-11T01:33:50.466Z,28.6
2019-02-11T01:34:39.878Z,28.4
2019-02-11T01:35:30.198Z,28.3
2019-02-11T01:37:09.196Z,27
2019-02-11T01:37:59.845Z,26.6
2019-02-11T01:38:50.460Z,26.3
2019-02-11T01:39:40.013Z,26.1
2019-02-11T01:40:30.320Z,26.3
2019-02-11T01:41:19.765Z,26.7
2019-02-11T01:42:09.917Z,26.8
2019-02-11T01:43:00.745Z,26.9
2019-02-11T01:43:50.265Z,27.1
2019-02-11T01:44:40.273Z,27.4
2019-02-11T01:45:30.078Z,27.6
2019-02-11T01:47:09.680Z,28.1
2019-02-11T01:48:00.262Z,28.3
2019-02-11T01:48:51.135Z,28.5
2019-02-11T01:49:41.209Z,28.6
2019-02-11T01:50:30.980Z,28.8
2019-02-11T01:51:21.367Z,29
2019-02-11T01:52:10.330Z,29.2
2019-02-11T01:53:02.065Z,29.3
2019-02-11T01:53:51.783Z,29.4
2019-02-11T01:54:42.092Z,29.6
2019-02-11T01:55:31.052Z,29.6
2019-02-11T01:56:20.957Z,29.4
2019-02-11T01:57:10.680Z,29.3
2019-02-11T01:58:01.774Z,29.2
2019-02-11T01:58:51.066Z,29.1
2019-02-11T01:59:41.359Z,28.9
2019-02-11T02:00:31.132Z,28.8
2019-02-11T02:01:21.709Z,28.6
2019-02-11T02:02:12.063Z,28.5
2019-02-11T02:03:01.894Z,28.4
2019-02-11T02:03:51.914Z,28.3
2019-02-11T02:04:42.554Z,27.4
2019-02-11T02:05:31.476Z,26.9
2019-02-11T02:06:22.081Z,26.5
2019-02-11T02:07:12.716Z,26.3
2019-02-11T02:08:02.193Z,26.1
2019-02-11T02:08:52.811Z,26.4
2019-02-11T02:09:41.483Z,26.8
2019-02-11T02:10:31.818Z,26.9
2019-02-11T02:11:22.436Z,27
2019-02-11T02:12:12.500Z,27.2
2019-02-11T02:13:01.443Z,27.4
2019-02-11T02:13:52.508Z,27.6
2019-02-11T02:14:42.928Z,27.9
2019-02-11T02:15:32.761Z,28.1
2019-02-11T02:16:23.344Z,28.3
2019-02-11T02:17:12.296Z,28.5
2019-02-11T02:18:02.950Z,28.7
2019-02-11T02:18:52.133Z,28.9
2019-02-11T02:19:42.460Z,29
2019-02-11T02:20:33.633Z,29.1
2019-02-11T02:21:23.432Z,29.3
2019-02-11T02:22:11.935Z,29.4
2019-02-11T02:23:03.878Z,29.6
2019-02-11T02:23:53.865Z,29.6
2019-02-11T02:24:43.087Z,29.4
2019-02-11T02:25:33.215Z,29.3
2019-02-11T02:26:23.022Z,29.2
2019-02-11T02:27:13.287Z,29
2019-02-11T02:28:03.602Z,28.9
2019-02-11T02:28:53.099Z,28.8
2019-02-11T02:29:44.007Z,28.6
2019-02-11T02:30:33.390Z,28.5
2019-02-11T02:31:23.584Z,28.4
2019-02-11T02:32:13.730Z,28.2
2019-02-11T02:33:04.633Z,27.3
2019-02-11T02:33:54.302Z,26.8
2019-02-11T02:34:44.532Z,26.4
2019-02-11T02:35:34.266Z,26.2
2019-02-11T02:36:24.305Z,26.3
2019-02-11T02:37:15.126Z,26.5
2019-02-11T02:38:04.661Z,26.9
2019-02-11T02:38:54.569Z,26.9
2019-02-11T02:39:44.419Z,27.1
2019-02-11T02:40:34.031Z,27.3
2019-02-11T02:41:24.109Z,27.5
2019-02-11T02:42:15.263Z,27.7
2019-02-11T02:43:05.021Z,27.9
2019-02-11T02:44:04.139Z,28.1
2019-02-11T02:44:43.814Z,28.3
2019-02-11T02:45:33.609Z,28.2
2019-02-11T02:46:23.975Z,27.6
2019-02-11T02:47:14.507Z,26.8
2019-02-11T02:48:04.604Z,25.9
2019-02-11T02:48:54.936Z,25.1
2019-02-11T02:49:44.944Z,24.7
2019-02-11T02:50:34.748Z,24.9
2019-02-11T02:51:25.131Z,25.6
2019-02-11T02:52:13.838Z,26.2
2019-02-11T02:53:04.986Z,26.5
2019-02-11T02:53:54.992Z,26.8
2019-02-11T02:54:45.329Z,27
2019-02-11T02:55:34.787Z,27.3
2019-02-11T02:56:24.420Z,27.5
2019-02-11T02:58:04.780Z,28.1
2019-02-11T02:58:55.404Z,28.3
2019-02-11T02:59:45.313Z,28.5
2019-02-11T03:00:35.963Z,28.7
2019-02-11T03:01:26.535Z,28.9
2019-02-11T03:02:16.055Z,29.1
2019-02-11T03:03:05.620Z,29.2
2019-02-11T03:03:55.792Z,29.4
2019-02-11T03:04:46.265Z,29.5
2019-02-11T03:08:18.695Z,29.2
2019-02-11T03:09:08.480Z,29.1
2019-02-11T03:09:59.400Z,28.9
2019-02-11T03:10:49.425Z,28.8
2019-02-11T03:11:38.685Z,28.6
2019-02-11T03:12:29.224Z,28.5
2019-02-11T03:13:19.273Z,28.4
2019-02-11T03:14:15.122Z,28.3
2019-02-11T03:15:49.759Z,27.1
2019-02-11T03:16:38.174Z,26.6
2019-02-11T03:17:29.844Z,26.3
2019-02-11T03:18:19.825Z,26.1
2019-02-11T03:19:09.125Z,26.4
2019-02-11T03:19:58.928Z,26.6
2019-02-11T03:20:49.516Z,26.9
2019-02-11T03:21:39.288Z,26.9
2019-02-11T03:22:29.640Z,27.2
2019-02-11T03:23:19.479Z,27.4
2019-02-11T03:24:10.034Z,27.6
2019-02-11T03:25:50.248Z,28
2019-02-11T03:26:39.616Z,28.2
2019-02-11T03:27:30.008Z,28.4
2019-02-11T03:28:20.031Z,28.6
2019-02-11T03:29:10.157Z,28.8
2019-02-11T03:30:00.780Z,28.9
2019-02-11T03:30:49.930Z,29.1
2019-02-11T03:31:40.843Z,29.2
2019-02-11T03:32:30.337Z,29.3
2019-02-11T03:33:21.097Z,29.4
2019-02-11T03:34:10.500Z,29.6
2019-02-11T03:35:00.908Z,29.6
2019-02-11T03:35:50.844Z,29.4
2019-02-11T03:36:40.703Z,29.3
2019-02-11T03:37:30.681Z,29.2
2019-02-11T03:38:21.067Z,29.1
2019-02-11T03:39:11.414Z,28.9
2019-02-11T03:40:00.970Z,28.8
2019-02-11T03:40:51.485Z,28.6
2019-02-11T03:41:40.965Z,28.5
2019-02-11T03:42:31.325Z,28.4
2019-02-11T03:43:21.409Z,28.3
2019-02-11T03:44:21.039Z,27.9
2019-02-11T03:45:00.700Z,26.9
2019-02-11T03:45:51.303Z,26.6
2019-02-11T03:46:41.142Z,26.4
2019-02-11T03:47:31.685Z,26.2
2019-02-11T03:48:21.203Z,26.3
2019-02-11T03:49:11.407Z,26.6
2019-02-11T03:50:01.154Z,26.9
2019-02-11T03:50:51.153Z,26.9
2019-02-11T03:51:40.918Z,27.1
2019-02-11T03:52:30.773Z,27.3
2019-02-11T03:53:21.369Z,27.5
2019-02-11T03:54:11.076Z,27.7
2019-02-11T03:55:02.280Z,27.9
2019-02-11T03:55:51.779Z,28.1
2019-02-11T03:56:41.016Z,28.3
2019-02-11T03:57:31.644Z,28.5
2019-02-11T03:58:21.712Z,28.7
2019-02-11T03:59:12.084Z,28.8
2019-02-11T04:00:02.005Z,29
2019-02-11T04:00:52.046Z,29.1
2019-02-11T04:01:42.382Z,29.3
2019-02-11T04:02:32.484Z,29.4
2019-02-11T04:03:22.537Z,29.5
2019-02-11T04:04:12.679Z,29.6
2019-02-11T04:05:02.729Z,29.5
2019-02-11T04:05:52.124Z,29.4
2019-02-11T04:06:42.805Z,29.3
2019-02-11T04:07:32.291Z,29.1
2019-02-11T04:08:22.285Z,28.9
2019-02-11T04:09:13.003Z,28.8
2019-02-11T04:10:03.494Z,28.7
2019-02-11T04:10:53.047Z,28.6
2019-02-11T04:11:43.091Z,28.4
2019-02-11T04:12:33.215Z,28.3
2019-02-11T04:13:22.955Z,27.8
2019-02-11T04:14:13.547Z,27.1
2019-02-11T04:15:04.146Z,26.6
2019-02-11T04:15:53.423Z,26.4
2019-02-11T04:16:43.403Z,26.3
2019-02-11T04:17:32.685Z,26.2
2019-02-11T04:18:24.117Z,26.4
2019-02-11T04:19:14.264Z,26.8
2019-02-11T04:20:04.202Z,26.9
2019-02-11T04:20:56.523Z,27.1
2019-02-11T04:21:43.875Z,27.2
2019-02-11T04:22:33.835Z,27.4
2019-02-11T04:23:24.240Z,27.6
2019-02-11T04:25:03.870Z,28
2019-02-11T04:25:54.172Z,28.2
2019-02-11T04:26:44.150Z,28.4
2019-02-11T04:27:33.636Z,28.6
2019-02-11T04:28:24.584Z,28.8
2019-02-11T04:29:14.851Z,28.9
2019-02-11T04:30:04.706Z,29
2019-02-11T04:30:55.119Z,29.1
2019-02-11T04:31:44.294Z,29.3
2019-02-11T04:32:34.023Z,29.4
2019-02-11T04:33:24.394Z,29.5
2019-02-11T04:34:13.894Z,29.5
2019-02-11T04:35:04.600Z,29.4
2019-02-11T04:35:54.828Z,29.4
2019-02-11T04:36:45.201Z,28.7
2019-02-11T04:37:34.622Z,27.9
2019-02-11T04:38:24.936Z,27
2019-02-11T04:39:14.762Z,26
2019-02-11T04:40:04.451Z,25.4
2019-02-11T04:40:54.879Z,25.4
2019-02-11T04:41:45.156Z,25.9
2019-02-11T04:42:34.728Z,26.7
2019-02-11T04:43:25.111Z,26.9
2019-02-11T04:44:15.102Z,27.3
2019-02-11T04:45:05.711Z,27.5
2019-02-11T04:45:55.747Z,27.7
2019-02-11T04:46:45.822Z,27.9
2019-02-11T04:47:34.849Z,28.2
2019-02-11T04:48:25.665Z,28.4
2019-02-11T04:49:15.201Z,28.6
2019-02-11T04:50:06.319Z,28.8
2019-02-11T04:50:55.582Z,29
2019-02-11T04:51:45.328Z,29.2
2019-02-11T04:52:36.580Z,29.4
2019-02-11T04:53:25.455Z,29.5
2019-02-11T04:54:16.156Z,29.6
2019-02-11T04:55:06.041Z,29.4
2019-02-11T04:55:56.278Z,29.3
2019-02-11T04:56:46.534Z,29.2
2019-02-11T04:57:36.613Z,29.1
2019-02-11T04:58:25.555Z,28.9
2019-02-11T04:59:16.549Z,28.8
2019-02-11T05:00:07.348Z,28.6
2019-02-11T05:00:56.518Z,28.5
2019-02-11T05:01:46.048Z,28.4
2019-02-11T05:02:35.869Z,28.3
2019-02-11T05:03:26.466Z,27.6
2019-02-11T05:04:17.347Z,26.9
2019-02-11T05:05:07.062Z,26.6
2019-02-11T05:05:57.185Z,26.4
2019-02-11T05:06:47.657Z,26.2
2019-02-11T05:07:37.110Z,26.3
2019-02-11T05:08:26.644Z,26.6
2019-02-11T05:09:17.167Z,26.9
2019-02-11T05:10:07.817Z,27
2019-02-11T05:10:57.270Z,27.1
2019-02-11T05:11:47.082Z,27.3
2019-02-11T05:12:37.419Z,27.6
2019-02-11T05:13:27.777Z,27.8
2019-02-11T05:14:17.587Z,28
2019-02-11T05:15:07.338Z,28.2
2019-02-11T05:15:57.230Z,28.4
2019-02-11T05:16:47.416Z,28.6
2019-02-11T05:17:37.706Z,28.8
2019-02-11T05:18:27.594Z,28.9
2019-02-11T05:19:17.894Z,29.1
2019-02-11T05:20:07.079Z,29.3
2019-02-11T05:20:58.717Z,29.4
2019-02-11T05:21:47.285Z,29.5
2019-02-11T05:22:37.500Z,29.6
2019-02-11T05:23:28.478Z,29.4
2019-02-11T05:24:18.777Z,29.3
2019-02-11T05:25:08.577Z,29.2
2019-02-11T05:25:57.595Z,29.1
2019-02-11T05:26:48.141Z,28.9
2019-02-11T05:27:38.221Z,28.8
2019-02-11T05:28:28.866Z,28.7
2019-02-11T05:29:18.011Z,28.5
2019-02-11T05:30:09.109Z,28.4
2019-02-11T05:30:58.102Z,28.3
2019-02-11T05:31:49.095Z,28.1
2019-02-11T05:32:38.870Z,27.4
2019-02-11T05:33:29.318Z,26.8
2019-02-11T05:34:19.023Z,26.4
2019-02-11T05:35:10.052Z,26.3
2019-02-11T05:35:59.039Z,26.2
2019-02-11T05:36:48.835Z,26.4
2019-02-11T05:37:38.843Z,26.8
2019-02-11T05:38:28.685Z,26.9
2019-02-11T05:39:18.821Z,27.1
2019-02-11T05:40:09.805Z,27.2
2019-02-11T05:40:58.899Z,27.4
2019-02-11T05:41:48.958Z,27.6
2019-02-11T05:43:29.873Z,28.1
2019-02-11T05:44:19.030Z,28.3
2019-02-11T05:45:10.045Z,28.4
2019-02-11T05:45:59.179Z,28.6
2019-02-11T05:46:50.293Z,28.8
2019-02-11T05:47:40.174Z,28.9
2019-02-11T05:48:29.015Z,29.1
2019-02-11T05:49:20.205Z,29.3
2019-02-11T05:50:09.508Z,29.4
2019-02-11T05:51:00.037Z,29.5
2019-02-11T05:51:50.184Z,29.6
2019-02-11T05:52:40.530Z,29.5
2019-02-11T05:53:30.261Z,29.4
2019-02-11T05:54:20.570Z,29.3
2019-02-11T05:55:10.375Z,29.1
2019-02-11T05:56:00.460Z,28.9
2019-02-11T05:56:50.722Z,28.8
2019-02-11T05:57:39.731Z,28.7
2019-02-11T05:58:30.610Z,28.6
2019-02-11T05:59:20.604Z,28.4
2019-02-11T06:00:10.111Z,28.3
2019-02-11T06:01:00.482Z,28.1
2019-02-11T06:01:50.561Z,27.4
2019-02-11T06:02:40.836Z,26.8
2019-02-11T06:03:31.314Z,26.4
2019-02-11T06:06:18.031Z,26.4
2019-02-11T06:07:07.691Z,26.9
2019-02-11T06:07:58.339Z,27
2019-02-11T06:08:47.811Z,27.1
2019-02-11T06:09:38.699Z,27.3
2019-02-11T06:10:28.259Z,27.4
2019-02-11T06:11:18.069Z,27.6
2019-02-11T06:12:08.916Z,27.9
2019-02-11T06:12:59.433Z,28.1
2019-02-11T06:13:48.646Z,28.3
2019-02-11T06:14:38.803Z,28.4
2019-02-11T06:15:28.778Z,28.6
2019-02-11T06:16:19.145Z,28.8
2019-02-11T06:17:09.184Z,28.9
2019-02-11T06:17:58.757Z,29.1
2019-02-11T06:18:48.007Z,29.3
2019-02-11T06:19:38.503Z,29.4
2019-02-11T06:20:28.903Z,29.5
2019-02-11T06:21:19.440Z,29.6
2019-02-11T06:22:10.048Z,29.4
2019-02-11T06:22:59.325Z,29.3
2019-02-11T06:23:49.086Z,29.2
2019-02-11T06:24:39.378Z,29.1
2019-02-11T06:25:30.293Z,28.9
2019-02-11T06:26:20.060Z,28.8
2019-02-11T06:27:09.192Z,28.7
2019-02-11T06:27:59.100Z,28.5
2019-02-11T06:28:50.064Z,28.4
2019-02-11T06:29:40.062Z,28.3
2019-02-11T06:30:29.585Z,28
2019-02-11T06:31:19.902Z,27.1
2019-02-11T06:32:10.873Z,26.6
2019-02-11T06:32:59.760Z,26.3
2019-02-11T06:33:49.511Z,26.1
2019-02-11T06:34:41.420Z,26.3
2019-02-11T06:35:30.477Z,26.5
2019-02-11T06:36:20.744Z,26.9
2019-02-11T06:37:09.533Z,26.9
2019-02-11T06:38:00.365Z,27.1
2019-02-11T06:38:50.485Z,27.3
2019-02-11T06:39:41.047Z,27.5
2019-02-11T06:40:30.943Z,27.8
2019-02-11T06:41:19.766Z,27.9
2019-02-11T06:42:10.994Z,28.1
2019-02-11T06:43:00.736Z,28.3
2019-02-11T06:43:50.756Z,28.1
2019-02-11T06:44:40.284Z,27.4
2019-02-11T06:45:30.573Z,26.8
2019-02-11T06:46:20.091Z,26
2019-02-11T06:47:11.535Z,25.1
2019-02-11T06:48:01.596Z,24.4
2019-02-11T06:48:51.371Z,24.3
2019-02-11T06:49:41.162Z,24.8
2019-02-11T06:50:31.496Z,25.5
2019-02-11T06:51:20.181Z,25.9
2019-02-11T06:52:10.213Z,26.3
2019-02-11T06:53:01.441Z,26.6
2019-02-11T06:53:50.620Z,26.9
2019-02-11T06:54:41.263Z,27.2
2019-02-11T06:55:30.781Z,27.4
2019-02-11T06:56:21.078Z,27.4
2019-02-11T06:57:13.685Z,27.3
2019-02-11T06:58:02.346Z,27.3
2019-02-11T06:58:51.787Z,27.1
2019-02-11T06:59:41.851Z,27
2019-02-11T07:00:31.428Z,26.9
2019-02-11T07:01:36.130Z,26.8
2019-02-11T07:02:11.743Z,26.6
2019-02-11T07:03:01.838Z,26.5
2019-02-11T07:03:52.155Z,26.4
2019-02-11T07:06:18.402Z,25.6
2019-02-11T07:07:08.685Z,25.3
2019-02-11T07:07:57.902Z,25.1
2019-02-11T07:08:47.977Z,24.9
2019-02-11T07:09:38.630Z,24.9
2019-02-11T07:10:28.649Z,24.8
2019-02-11T07:11:17.357Z,24.6
2019-02-11T07:12:08.012Z,24.6
2019-02-11T07:12:59.099Z,24.9
2019-02-11T07:13:48.888Z,25.1
2019-02-11T07:14:39.220Z,25.6
2019-02-11T07:15:31.154Z,25.8
2019-02-11T07:16:19.111Z,26.1
2019-02-11T07:17:08.640Z,26.4
2019-02-11T07:17:58.637Z,26.6
2019-02-11T07:18:49.296Z,26.9
2019-02-11T07:19:39.553Z,27.2
2019-02-11T07:20:28.899Z,27.4
2019-02-11T07:21:18.559Z,27.4
2019-02-11T07:22:09.492Z,27.3
2019-02-11T07:22:58.958Z,27.2
2019-02-11T07:23:49.302Z,27.1
2019-02-11T07:24:39.654Z,26.9
2019-02-11T07:25:29.168Z,26.9
2019-02-11T07:26:19.479Z,26.8
2019-02-11T07:27:09.251Z,26.6
2019-02-11T07:28:00.196Z,26.5
2019-02-11T07:28:50.244Z,26.4
2019-02-11T07:29:39.417Z,26.3
2019-02-11T07:30:28.449Z,25.7
2019-02-11T07:31:20.083Z,25.4
2019-02-11T07:32:10.458Z,25.1
2019-02-11T07:33:00.249Z,24.9
2019-02-11T07:33:49.191Z,24.8
2019-02-11T07:34:39.256Z,24.7
2019-02-11T07:35:30.972Z,24.6
2019-02-11T07:36:22.118Z,24.5
2019-02-11T07:37:10.614Z,24.8
2019-02-11T07:38:00.929Z,25.1
2019-02-11T07:38:49.868Z,25.5
2019-02-11T07:39:40.425Z,25.7
2019-02-11T07:40:30.196Z,26
2019-02-11T07:41:20.775Z,26.3
2019-02-11T07:42:12.001Z,26.5
2019-02-11T07:42:59.510Z,26.8
2019-02-11T07:43:49.898Z,27
2019-02-11T07:44:39.067Z,27.3
2019-02-11T07:45:39.305Z,27.4
2019-02-11T07:46:21.172Z,27.3
2019-02-11T07:47:11.170Z,27.2
2019-02-11T07:48:01.042Z,27.1
2019-02-11T07:48:50.490Z,27
2019-02-11T07:49:40.890Z,26.9
2019-02-11T07:50:30.667Z,26.8
2019-02-11T07:51:20.464Z,26.6
2019-02-11T07:52:11.094Z,26.5
2019-02-11T07:53:01.140Z,26.4
2019-02-11T07:53:51.419Z,26.3
2019-02-11T07:54:41.563Z,26.2
2019-02-11T07:55:30.741Z,25.5
2019-02-11T07:56:22.442Z,25.2
2019-02-11T07:57:11.949Z,24.9
2019-02-11T07:58:01.931Z,24.8
2019-02-11T07:58:51.195Z,24.7
2019-02-11T07:59:42.075Z,24.6
2019-02-11T08:00:32.155Z,24.4
2019-02-11T08:01:22.432Z,24.7
2019-02-11T08:02:12.013Z,25
2019-02-11T08:03:02.051Z,25.4
2019-02-11T08:03:52.097Z,25.6
2019-02-11T08:04:42.769Z,25.9
2019-02-11T08:05:31.710Z,26.1
2019-02-11T08:06:22.289Z,26.4
2019-02-11T08:07:12.084Z,26.6
2019-02-11T08:08:02.933Z,26.9
2019-02-11T08:08:53.014Z,27.2
2019-02-11T08:09:42.251Z,27.4
2019-02-11T08:10:32.304Z,27.3
2019-02-11T08:11:22.575Z,27.3
2019-02-11T08:12:11.964Z,27.1
2019-02-11T08:13:03.048Z,27.1
2019-02-11T08:13:51.168Z,26.9
2019-02-11T08:14:43.093Z,26.8
2019-02-11T08:15:40.272Z,26.7
2019-02-11T08:16:23.510Z,26.6
2019-02-11T08:17:13.365Z,26.4
2019-02-11T08:18:04.805Z,26.3
2019-02-11T08:18:53.158Z,25.9
2019-02-11T08:19:43.020Z,25.4
2019-02-11T08:20:33.238Z,25.1
2019-02-11T08:21:23.557Z,24.9
2019-02-11T08:22:12.608Z,24.8
2019-02-11T08:23:10.754Z,24.6
2019-02-11T08:23:53.330Z,24.5
2019-02-11T08:24:43.590Z,24.4
2019-02-11T08:25:33.390Z,24.8
2019-02-11T08:26:22.877Z,25
2019-02-11T08:27:13.222Z,25.4
2019-02-11T08:28:03.068Z,25.6
2019-02-11T08:28:53.595Z,25.9
2019-02-11T08:29:43.120Z,26.2
2019-02-11T08:30:33.725Z,26.4
2019-02-11T08:31:24.067Z,26.7
2019-02-11T08:32:14.372Z,27
2019-02-11T08:33:04.495Z,27.3
2019-02-11T08:33:53.942Z,27.4
2019-02-11T08:34:44.322Z,27.3
2019-02-11T08:35:35.740Z,27.3
2019-02-11T08:36:24.069Z,27.1
2019-02-11T08:37:14.014Z,27
2019-02-11T08:38:03.952Z,26.9
2019-02-11T08:38:54.618Z,26.8
2019-02-11T08:39:44.357Z,26.7
2019-02-11T08:40:33.584Z,26.6
2019-02-11T08:41:24.474Z,26.4
2019-02-11T08:42:14.231Z,26.3
2019-02-11T08:43:04.617Z,25.7
2019-02-11T08:43:54.921Z,25.3
2019-02-11T08:44:43.304Z,25
2019-02-11T08:45:34.760Z,24.8
2019-02-11T08:46:24.549Z,24.7
2019-02-11T08:47:15.004Z,24.6
2019-02-11T08:48:04.125Z,24.4
2019-02-11T08:48:55.171Z,24.6
2019-02-11T08:49:45.479Z,24.9
2019-02-11T08:50:36.146Z,25.3
2019-02-11T08:51:26.886Z,25.5
2019-02-11T08:52:14.940Z,25.8
2019-02-11T08:53:04.465Z,26.1
2019-02-11T08:53:54.506Z,26.3
2019-02-11T08:54:44.623Z,26.6
2019-02-11T08:55:35.180Z,26.9
2019-02-11T08:56:25.776Z,27.2
2019-02-11T08:57:15.756Z,27.4
2019-02-11T08:58:05.923Z,27.4
2019-02-11T08:58:55.461Z,27.3
2019-02-11T08:59:45.738Z,27.2
2019-02-11T09:00:35.725Z,27.1
2019-02-11T09:01:26.372Z,26.9
2019-02-11T09:02:16.213Z,26.8
2019-02-11T09:03:06.506Z,26.7
2019-02-11T09:03:55.191Z,26.6
2019-02-11T09:04:46.096Z,26.4
2019-02-11T09:05:35.588Z,26.4
2019-02-11T09:06:26.315Z,26.3
2019-02-11T09:07:15.480Z,26.1
2019-02-11T09:08:08.612Z,26
2019-02-11T09:08:56.075Z,25.9
2019-02-11T09:09:46.405Z,25.8
2019-02-11T09:10:36.837Z,25.7
2019-02-11T09:11:26.750Z,25.6
2019-02-11T09:12:17.111Z,25.5
2019-02-11T09:13:06.940Z,25.4
2019-02-11T09:13:57.197Z,24.9
2019-02-11T09:14:46.585Z,25
2019-02-11T09:15:37.116Z,25.4
2019-02-11T09:16:28.009Z,25.5
2019-02-11T09:17:19.516Z,25.8
2019-02-11T09:18:07.811Z,26
2019-02-11T09:18:56.974Z,26.3
2019-02-11T09:19:47.149Z,26.6
2019-02-11T09:20:36.554Z,26.9
2019-02-11T09:21:27.722Z,27.2
2019-02-11T09:22:17.214Z,27.4
2019-02-11T09:23:06.222Z,27.4
2019-02-11T09:23:58.217Z,27.3
2019-02-11T09:24:47.661Z,27.2
2019-02-11T09:25:38.275Z,27.1
2019-02-11T09:26:27.803Z,27
2019-02-11T09:27:17.559Z,26.9
2019-02-11T09:28:08.437Z,26.8
2019-02-11T09:28:57.501Z,26.6
2019-02-11T09:29:48.018Z,26.5
2019-02-11T09:30:37.041Z,26.4
2019-02-11T09:31:27.846Z,26.3
2019-02-11T09:32:19.763Z,26.1
2019-02-11T09:33:07.794Z,26.1
2019-02-11T09:33:57.881Z,25.9
2019-02-11T09:34:47.003Z,25.9
2019-02-11T09:35:38.743Z,25.8
2019-02-11T09:36:28.285Z,25.6
2019-02-11T09:37:19.353Z,25.5
2019-02-11T09:38:07.491Z,25.4
2019-02-11T09:38:58.665Z,24.9
2019-02-11T09:39:48.288Z,24.9
2019-02-11T09:40:39.128Z,25.3
2019-02-11T09:41:28.878Z,25.5
2019-02-11T09:42:19.003Z,25.7
2019-02-11T09:43:09.223Z,26
2019-02-11T09:43:59.082Z,26.3
2019-02-11T09:44:49.603Z,26.5
2019-02-11T09:45:38.310Z,26.8
2019-02-11T09:46:28.953Z,27.2
2019-02-11T09:47:19.243Z,27.4
2019-02-11T09:48:09.060Z,27.4
2019-02-11T09:48:58.608Z,27.3
2019-02-11T09:49:49.685Z,27.2
2019-02-11T09:50:38.970Z,27.1
2019-02-11T09:51:30.370Z,27
2019-02-11T09:52:19.034Z,26.9
2019-02-11T09:53:09.094Z,26.8
2019-02-11T09:53:59.980Z,26.6
2019-02-11T09:54:49.589Z,26.5
2019-02-11T09:55:39.534Z,26.4
2019-02-11T09:56:29.637Z,26.3
2019-02-11T09:57:19.637Z,26.2
2019-02-11T09:58:10.572Z,26.1
2019-02-11T09:58:59.467Z,25.9
2019-02-11T09:59:50.149Z,25.9
2019-02-11T10:00:39.699Z,25.8
2019-02-11T10:01:30.562Z,25.6
2019-02-11T10:02:20.297Z,25.6
2019-02-11T10:03:10.431Z,25.4
2019-02-11T10:03:59.649Z,25
2019-02-11T10:04:50.736Z,24.8
2019-02-11T10:07:17.634Z,25.5
2019-02-11T10:08:08.604Z,25.8
2019-02-11T10:08:58.669Z,26.1
2019-02-11T10:09:49.889Z,26.4
2019-02-11T10:10:38.481Z,26.7
2019-02-11T10:11:27.621Z,27
2019-02-11T10:12:26.731Z,27.3
2019-02-11T10:13:08.078Z,27.4
2019-02-11T10:13:58.384Z,27.3
2019-02-11T10:14:48.496Z,27.3
2019-02-11T10:15:38.321Z,27.1
2019-02-11T10:16:30.723Z,27.1
2019-02-11T10:17:18.606Z,26.9
2019-02-11T10:18:09.216Z,26.8
2019-02-11T10:18:58.728Z,26.7
2019-02-11T10:19:48.781Z,26.6
2019-02-11T10:20:38.595Z,26.4
2019-02-11T10:21:28.906Z,26.3
2019-02-11T10:22:18.950Z,26.3
2019-02-11T10:23:09.073Z,26.1
2019-02-11T10:23:59.352Z,26
2019-02-11T10:24:49.207Z,25.9
2019-02-11T10:25:38.923Z,25.8
2019-02-11T10:26:29.528Z,25.7
2019-02-11T10:27:19.356Z,25.6
2019-02-11T10:28:09.640Z,25.5
2019-02-11T10:28:59.727Z,25.4
2019-02-11T10:29:48.652Z,24.9
2019-02-11T10:30:40.128Z,24.9
2019-02-11T10:31:29.089Z,25.4
2019-02-11T10:32:20.478Z,25.4
2019-02-11T10:33:09.474Z,25.7
2019-02-11T10:34:00.605Z,25.9
2019-02-11T10:34:50.132Z,26.2
2019-02-11T10:35:48.257Z,26.5
2019-02-11T10:36:30.209Z,26.9
2019-02-11T10:37:19.988Z,27.1
2019-02-11T10:38:09.509Z,27.4
2019-02-11T10:38:59.305Z,27.3
2019-02-11T10:39:51.029Z,27.3
2019-02-11T10:40:39.727Z,27.2
2019-02-11T10:41:30.287Z,27.1
2019-02-11T10:42:20.394Z,26.9
2019-02-11T10:43:10.842Z,26.8
2019-02-11T10:44:00.769Z,26.8
2019-02-11T10:44:50.534Z,26.6
2019-02-11T10:45:45.364Z,26.5
2019-02-11T10:46:29.512Z,26.4
2019-02-11T10:47:19.914Z,26.3
2019-02-11T10:48:11.391Z,26.1
2019-02-11T10:49:00.539Z,26.1
2019-02-11T10:49:50.868Z,25.9
2019-02-11T10:50:41.592Z,25.8
2019-02-11T10:51:30.728Z,25.7
2019-02-11T10:52:20.475Z,25.6
2019-02-11T10:53:11.121Z,25.6
2019-02-11T10:54:00.968Z,25.4
2019-02-11T10:54:51.811Z,24.9
2019-02-11T10:55:40.538Z,24.9
2019-02-11T10:56:31.688Z,25.3
2019-02-11T10:57:21.124Z,25.4
2019-02-11T10:58:11.678Z,25.6
2019-02-11T10:59:01.825Z,25.9
2019-02-11T10:59:51.045Z,26.2
2019-02-11T11:00:42.181Z,26.4
2019-02-11T11:01:33.305Z,26.8
2019-02-11T11:02:21.250Z,27.1
2019-02-11T11:03:12.708Z,27.4
2019-02-11T11:04:00.840Z,27.4
2019-02-11T11:04:52.747Z,27.3
2019-02-11T11:05:41.475Z,27.3
2019-02-11T11:06:32.693Z,27.1
2019-02-11T11:07:21.826Z,27
2019-02-11T11:08:12.455Z,26.9
2019-02-11T11:09:02.495Z,26.8
2019-02-11T11:09:52.817Z,26.7
2019-02-11T11:10:41.517Z,26.6
2019-02-11T11:11:33.215Z,26.4
2019-02-11T11:12:21.337Z,26.3
2019-02-11T11:13:12.262Z,26.3
2019-02-11T11:14:02.080Z,26.1
2019-02-11T11:14:52.369Z,26
2019-02-11T11:15:42.002Z,25.9
2019-02-11T11:16:38.959Z,25.8
2019-02-11T11:17:21.679Z,25.7
2019-02-11T11:18:12.599Z,25.6
2019-02-11T11:19:02.086Z,25.5
2019-02-11T11:19:52.694Z,25.3
2019-02-11T11:20:42.299Z,24.8
2019-02-11T11:21:32.952Z,25
2019-02-11T11:22:23.674Z,25.3
2019-02-11T11:23:12.944Z,25.5